createdAt,value
2018-04-12T00:01:14.721Z,100035
2018-04-12T00:04:19.463Z,100036
2018-04-12T00:07:24.197Z,100030
2018-04-12T00:10:28.515Z,100033
2018-04-12T00:13:32.428Z,100031
2018-04-12T00:16:37.035Z,100033
2018-04-12T00:19:40.888Z,100031
2018-04-12T00:22:44.784Z,100027
2018-04-12T00:25:49.067Z,100027
2018-04-12T00:28:53.701Z,100022
2018-04-12T00:31:58.367Z,100022
2018-04-12T00:35:03.104Z,100022
2018-04-12T00:38:07.794Z,100014
2018-04-12T00:41:12.164Z,100017
2018-04-12T00:44:16.908Z,100007
2018-04-12T00:47:21.075Z,100010
2018-04-12T00:50:25.284Z,100001
2018-04-12T00:53:47.411Z,99996
2018-04-12T00:56:51.755Z,99999
2018-04-12T00:59:55.720Z,99991
2018-04-12T01:02:59.592Z,99991
2018-04-12T01:06:03.885Z,99990
2018-04-12T01:09:07.845Z,99967
2018-04-12T01:12:12.795Z,99992
2018-04-12T01:15:16.667Z,99985
2018-04-12T01:18:20.579Z,99987
2018-04-12T01:21:25.175Z,99989
2018-04-12T01:24:29.126Z,99986
2018-04-12T01:27:33.725Z,99981
2018-04-12T01:30:38.042Z,99978
2018-04-12T01:33:42.383Z,99976
2018-04-12T01:36:46.299Z,99972
2018-04-12T01:39:50.183Z,99967
2018-04-12T01:42:54.124Z,99965
2018-04-12T01:45:58.707Z,99966
2018-04-12T01:49:02.595Z,99958
2018-04-12T01:52:06.471Z,99955
2018-04-12T01:55:11.043Z,99951
2018-04-12T01:58:15.307Z,99948
2018-04-12T02:01:19.218Z,99938
2018-04-12T02:04:23.961Z,99941
2018-04-12T02:07:27.849Z,99940
2018-04-12T02:10:32.450Z,99932
2018-04-12T02:13:37.510Z,99934
2018-04-12T02:16:42.483Z,99926
2018-04-12T02:19:47.993Z,99923
2018-04-12T02:22:53.357Z,99920
2018-04-12T02:25:57.246Z,99916
2018-04-12T02:29:01.223Z,99912
2018-04-12T02:32:05.496Z,99910
2018-04-12T02:35:09.823Z,99908
2018-04-12T02:38:14.421Z,99914
2018-04-12T02:41:19.083Z,99913
2018-04-12T02:44:22.967Z,99910
2018-04-12T02:47:27.571Z,99904
2018-04-12T02:50:31.416Z,99912
2018-04-12T02:53:35.525Z,99897
2018-04-12T02:56:40.568Z,99902
2018-04-12T02:59:44.380Z,99897
2018-04-12T03:02:48.296Z,99897
2018-04-12T03:05:52.208Z,99897
2018-04-12T03:08:56.129Z,99898
2018-04-12T03:12:00.095Z,99896
2018-04-12T03:15:03.966Z,99889
2018-04-12T03:18:07.879Z,99875
2018-04-12T03:21:12.242Z,99873
2018-04-12T03:24:16.577Z,99862
2018-04-12T03:27:21.212Z,99859
2018-04-12T03:30:25.666Z,99854
2018-04-12T03:33:30.242Z,99850
2018-04-12T03:36:35.266Z,99851
2018-04-12T03:39:39.937Z,99854
2018-04-12T03:42:45.032Z,99849
2018-04-12T03:45:48.975Z,99851
2018-04-12T03:48:55.263Z,99855
2018-04-12T03:51:59.210Z,99848
2018-04-12T03:55:03.651Z,99845
2018-04-12T03:58:07.897Z,99843
2018-04-12T04:01:12.486Z,99843
2018-04-12T04:04:16.713Z,99847
2018-04-12T04:07:21.081Z,99838
2018-04-12T04:10:25.940Z,99841
2018-04-12T04:13:33.495Z,99834
2018-04-12T04:16:55.042Z,99833
2018-04-12T04:20:17.742Z,99836
2018-04-12T04:23:21.966Z,99835
2018-04-12T04:26:25.811Z,99830
2018-04-12T04:29:29.658Z,99822
2018-04-12T04:32:33.919Z,99823
2018-04-12T04:35:43.790Z,99825
2018-04-12T04:38:54.563Z,99824
2018-04-12T04:42:04.258Z,99820
2018-04-12T04:45:14.201Z,99819
2018-04-12T04:48:24.004Z,99817
2018-04-12T04:51:33.824Z,99820
2018-04-12T04:54:43.722Z,99817
2018-04-12T04:57:53.116Z,99819
2018-04-12T05:01:02.892Z,99811
2018-04-12T05:04:12.291Z,99813
2018-04-12T05:07:21.712Z,99811
2018-04-12T05:10:31.098Z,99808
2018-04-12T05:13:40.527Z,99808
2018-04-12T05:16:50.933Z,99806
2018-04-12T05:20:00.390Z,99802
2018-04-12T05:23:09.904Z,99801
2018-04-12T05:26:19.858Z,99799
2018-04-12T05:29:29.941Z,99804
2018-04-12T05:32:39.679Z,99801
2018-04-12T05:35:49.982Z,99798
2018-04-12T05:38:59.727Z,99794
2018-04-12T05:42:10.050Z,99797
2018-04-12T05:45:20.101Z,99794
2018-04-12T05:48:29.395Z,99793
2018-04-12T05:51:39.531Z,99785
2018-04-12T05:54:48.951Z,99776
2018-04-12T05:57:59.196Z,99776
2018-04-12T06:01:09.035Z,99770
2018-04-12T06:04:18.479Z,99772
2018-04-12T06:07:28.328Z,99772
2018-04-12T06:10:37.647Z,99782
2018-04-12T06:13:47.879Z,99774
2018-04-12T06:16:57.313Z,99776
2018-04-12T06:20:06.810Z,99774
2018-04-12T06:23:16.231Z,99775
2018-04-12T06:26:25.557Z,99773
2018-04-12T06:29:34.923Z,99767
2018-04-12T06:32:45.152Z,99770
2018-04-12T06:35:54.606Z,99775
2018-04-12T06:39:05.023Z,99780
2018-04-12T06:42:14.565Z,99774
2018-04-12T06:45:24.927Z,99771
2018-04-12T06:48:34.465Z,99764
2018-04-12T06:51:45.378Z,99763
2018-04-12T06:54:55.071Z,99759
2018-04-12T06:58:04.519Z,99757
2018-04-12T07:01:14.915Z,99753
2018-04-12T07:04:25.278Z,99756
2018-04-12T07:07:35.636Z,99753
2018-04-12T07:10:45.130Z,99755
2018-04-12T07:13:54.570Z,99760
2018-04-12T07:17:04.669Z,99765
2018-04-12T07:20:13.987Z,99764
2018-04-12T07:23:24.948Z,99766
2018-04-12T07:26:38.728Z,99767
2018-04-12T07:29:48.060Z,99767
2018-04-12T07:32:57.531Z,99766
2018-04-12T07:36:07.432Z,99762
2018-04-12T07:39:17.591Z,99760
2018-04-12T07:42:27.407Z,99764
2018-04-12T07:45:37.076Z,99765
2018-04-12T07:48:47.147Z,99754
2018-04-12T07:51:56.731Z,99758
2018-04-12T07:55:06.890Z,99764
2018-04-12T07:58:17.008Z,99768
2018-04-12T08:01:26.351Z,99763
2018-04-12T08:04:36.664Z,99757
2018-04-12T08:07:46.529Z,99758
2018-04-12T08:10:55.883Z,99755
2018-04-12T08:14:06.060Z,99745
2018-04-12T08:17:16.667Z,99742
2018-04-12T08:20:26.958Z,99747
2018-04-12T08:23:36.420Z,99743
2018-04-12T08:26:46.135Z,99734
2018-04-12T08:29:55.896Z,99735
2018-04-12T08:33:06.771Z,99734
2018-04-12T08:36:16.211Z,99738
2018-04-12T08:39:25.537Z,99737
2018-04-12T08:42:34.996Z,99731
2018-04-12T08:45:44.583Z,99726
2018-04-12T08:48:53.964Z,99724
2018-04-12T08:52:04.295Z,99715
2018-04-12T08:55:13.543Z,99708
2018-04-12T08:58:22.977Z,99702
2018-04-12T09:01:32.372Z,99695
2018-04-12T09:04:41.807Z,99693
2018-04-12T09:07:51.237Z,99694
2018-04-12T09:11:01.429Z,99683
2018-04-12T09:14:10.753Z,99681
2018-04-12T09:17:20.927Z,99676
2018-04-12T09:20:31.155Z,99670
2018-04-12T09:23:40.844Z,99669
2018-04-12T09:26:50.888Z,99664
2018-04-12T09:30:00.879Z,99658
2018-04-12T09:33:10.657Z,99644
2018-04-12T09:36:20.924Z,99642
2018-04-12T09:39:30.992Z,99617
2018-04-12T09:42:40.290Z,99629
2018-04-12T09:45:49.725Z,99615
2018-04-12T09:48:59.221Z,99611
2018-04-12T09:52:09.011Z,99621
2018-04-12T09:55:19.269Z,99613
2018-04-12T09:58:28.567Z,99610
2018-04-12T10:01:43.491Z,99601
2018-04-12T10:04:55.354Z,99599
2018-04-12T10:08:10.310Z,99602
2018-04-12T10:11:20.396Z,99596
2018-04-12T10:14:30.508Z,99597
2018-04-12T10:17:40.223Z,99591
2018-04-12T10:20:49.523Z,99579
2018-04-12T10:23:59.040Z,99571
2018-04-12T10:27:08.903Z,99560
2018-04-12T10:30:19.152Z,99543
2018-04-12T10:33:28.636Z,99544
2018-04-12T10:36:38.751Z,99536
2018-04-12T10:39:48.081Z,99532
2018-04-12T10:42:58.277Z,99529
2018-04-12T10:46:07.589Z,99535
2018-04-12T10:49:17.678Z,99535
2018-04-12T10:52:27.200Z,99534
2018-04-12T10:55:36.612Z,99537
2018-04-12T10:58:45.943Z,99532
2018-04-12T11:01:56.056Z,99526
2018-04-12T11:05:05.352Z,99525
2018-04-12T11:08:15.583Z,99529
2018-04-12T11:11:24.949Z,99521
2018-04-12T11:14:34.399Z,99532
2018-04-12T11:17:43.892Z,99529
2018-04-12T11:20:53.179Z,99536
2018-04-12T11:24:02.524Z,99539
2018-04-12T11:27:11.864Z,99543
2018-04-12T11:30:21.317Z,99542
2018-04-12T11:33:30.680Z,99542
2018-04-12T11:36:40.789Z,99538
2018-04-12T11:39:51.424Z,99546
2018-04-12T11:43:00.751Z,99542
2018-04-12T11:46:10.995Z,99540
2018-04-12T11:49:20.215Z,99532
2018-04-12T11:52:30.043Z,99527
2018-04-12T11:55:40.234Z,99524
2018-04-12T11:58:49.647Z,99519
2018-04-12T12:01:59.508Z,99518
2018-04-12T12:05:08.892Z,99520
2018-04-12T12:08:18.350Z,99524
2018-04-12T12:11:27.811Z,99526
2018-04-12T12:14:37.107Z,99532
2018-04-12T12:17:47.285Z,99534
2018-04-12T12:20:56.582Z,99521
2018-04-12T12:24:06.819Z,99515
2018-04-12T12:27:16.888Z,99511
2018-04-12T12:30:26.720Z,99507
2018-04-12T12:33:36.509Z,99506
2018-04-12T12:36:45.800Z,99508
2018-04-12T12:39:55.228Z,99501
2018-04-12T12:43:04.751Z,99502
2018-04-12T12:46:14.191Z,99497
2018-04-12T12:49:23.550Z,99503
2018-04-12T12:52:33.687Z,99499
2018-04-12T12:55:44.432Z,99504
2018-04-12T12:58:53.716Z,99497
2018-04-12T13:02:03.192Z,99481
2018-04-12T13:05:13.157Z,99481
2018-04-12T13:08:23.289Z,99485
2018-04-12T13:11:32.831Z,99468
2018-04-12T13:14:42.307Z,99464
2018-04-12T13:17:51.817Z,99457
2018-04-12T13:21:01.691Z,99464
2018-04-12T13:24:11.915Z,99465
2018-04-12T13:27:21.299Z,99465
2018-04-12T13:30:30.639Z,99478
2018-04-12T13:33:40.284Z,99468
2018-04-12T13:36:49.640Z,99472
2018-04-12T13:39:58.956Z,99473
2018-04-12T13:43:08.700Z,99473
2018-04-12T13:46:18.020Z,99470
2018-04-12T13:49:28.287Z,99450
2018-04-12T13:52:48.122Z,99436
2018-04-12T13:55:58.419Z,99426
2018-04-12T13:59:07.773Z,99414
2018-04-12T14:02:21.881Z,99431
2018-04-12T14:05:31.222Z,99442
2018-04-12T14:08:40.613Z,99451
2018-04-12T14:11:50.420Z,99447
2018-04-12T14:15:00.273Z,99446
2018-04-12T14:18:09.844Z,99451
2018-04-12T14:21:19.936Z,99453
2018-04-12T14:24:30.149Z,99440
2018-04-12T14:27:43.935Z,99440
2018-04-12T14:30:53.277Z,99443
2018-04-12T14:34:02.737Z,99447
2018-04-12T14:37:12.009Z,99450
2018-04-12T14:40:22.287Z,99447
2018-04-12T14:43:32.384Z,99431
2018-04-12T14:46:41.747Z,99425
2018-04-12T14:49:51.203Z,99427
2018-04-12T14:53:05.131Z,99421
2018-04-12T14:56:15.470Z,99426
2018-04-12T14:59:25.971Z,99435
2018-04-12T15:02:36.255Z,99462
2018-04-12T15:05:45.651Z,99464
2018-04-12T15:08:55.002Z,99468
2018-04-12T15:12:04.356Z,99461
2018-04-12T15:15:13.795Z,99454
2018-04-12T15:18:23.155Z,99455
2018-04-12T15:21:33.442Z,99471
2018-04-12T15:24:43.203Z,99472
2018-04-12T15:27:53.100Z,99469
2018-04-12T15:31:02.885Z,99472
2018-04-12T15:34:13.707Z,99475
2018-04-12T15:37:22.996Z,99471
2018-04-12T15:40:32.519Z,99472
2018-04-12T15:43:42.739Z,99466
2018-04-12T15:46:52.168Z,99462
2018-04-12T15:50:02.074Z,99473
2018-04-12T15:53:11.505Z,99476
2018-04-12T15:56:21.726Z,99476
2018-04-12T15:59:31.593Z,99480
2018-04-12T16:02:40.939Z,99483
2018-04-12T16:05:50.805Z,99479
2018-04-12T16:09:00.155Z,99468
2018-04-12T16:12:09.471Z,99472
2018-04-12T16:15:18.897Z,99470
2018-04-12T16:18:28.200Z,99474
2018-04-12T16:21:37.879Z,99474
2018-04-12T16:24:47.700Z,99482
2018-04-12T16:27:57.772Z,99490
2018-04-12T16:31:07.301Z,99480
2018-04-12T16:34:17.155Z,99471
2018-04-12T16:37:28.115Z,99477
2018-04-12T16:40:37.643Z,99486
2018-04-12T16:43:47.475Z,99488
2018-04-12T16:46:56.817Z,99479
2018-04-12T16:50:06.639Z,99499
2018-04-12T16:53:16.032Z,99515
2018-04-12T16:56:25.525Z,99531
2018-04-12T16:59:35.679Z,99600
2018-04-12T17:02:45.032Z,99620
2018-04-12T17:05:54.388Z,99639
2018-04-12T17:09:04.225Z,99615
2018-04-12T17:12:13.617Z,99590
2018-04-12T17:15:23.819Z,99586
2018-04-12T17:18:33.156Z,99578
2018-04-12T17:21:44.110Z,99594
2018-04-12T17:24:53.465Z,99593
2018-04-12T17:28:03.007Z,99582
2018-04-12T17:31:13.243Z,99584
2018-04-12T17:34:22.674Z,99572
2018-04-12T17:37:32.909Z,99567
2018-04-12T17:40:42.899Z,99560
2018-04-12T17:43:52.204Z,99554
2018-04-12T17:47:01.665Z,99553
2018-04-12T17:50:11.087Z,99561
2018-04-12T17:53:21.176Z,99568
2018-04-12T17:56:31.254Z,99577
2018-04-12T17:59:41.136Z,99581
2018-04-12T18:02:50.836Z,99577
2018-04-12T18:06:01.037Z,99580
2018-04-12T18:09:10.447Z,99577
2018-04-12T18:12:20.667Z,99565
2018-04-12T18:15:30.133Z,99575
2018-04-12T18:18:39.827Z,99582
2018-04-12T18:21:49.517Z,99580
2018-04-12T18:25:01.172Z,99577
2018-04-12T18:28:10.923Z,99576
2018-04-12T18:31:21.188Z,99581
2018-04-12T18:34:31.828Z,99587
2018-04-12T18:37:41.687Z,99590
2018-04-12T18:40:52.229Z,99609
2018-04-12T18:44:01.599Z,99617
2018-04-12T18:47:11.432Z,99615
2018-04-12T18:50:22.407Z,99624
2018-04-12T18:53:32.640Z,99634
2018-04-12T18:56:42.180Z,99625
2018-04-12T18:59:52.075Z,99630
2018-04-12T19:03:01.546Z,99635
2018-04-12T19:06:11.470Z,99651
2018-04-12T19:09:20.799Z,99653
2018-04-12T19:12:30.668Z,99642
2018-04-12T19:15:40.068Z,99636
2018-04-12T19:18:49.936Z,99643
2018-04-12T19:22:00.325Z,99645
2018-04-12T19:25:10.409Z,99647
2018-04-12T19:28:19.861Z,99645
2018-04-12T19:31:30.384Z,99658
2018-04-12T19:34:40.422Z,99655
2018-04-12T19:37:50.244Z,99651
2018-04-12T19:40:59.747Z,99646
2018-04-12T19:44:09.223Z,99666
2018-04-12T19:47:19.451Z,99664
2018-04-12T19:50:29.057Z,99655
2018-04-12T19:53:38.939Z,99646
2018-04-12T19:56:49.154Z,99654
2018-04-12T19:59:59.281Z,99637
2018-04-12T20:03:09.493Z,99637
2018-04-12T20:06:19.568Z,99636
2018-04-12T20:09:29.064Z,99631
2018-04-12T20:12:39.028Z,99627
2018-04-12T20:15:49.248Z,99624
2018-04-12T20:18:59.124Z,99626
2018-04-12T20:22:08.531Z,99622
2018-04-12T20:25:18.416Z,99624
2018-04-12T20:28:27.956Z,99628
2018-04-12T20:31:37.897Z,99633
2018-04-12T20:34:49.180Z,99635
2018-04-12T20:37:58.620Z,99637
2018-04-12T20:41:08.513Z,99642
2018-04-12T20:44:17.969Z,99645
2018-04-12T20:47:28.227Z,99640
2018-04-12T20:50:38.397Z,99643
2018-04-12T20:53:47.869Z,99636
2018-04-12T20:56:58.347Z,99632
2018-04-12T21:00:07.839Z,99631
2018-04-12T21:03:17.395Z,99633
2018-04-12T21:06:27.673Z,99640
2018-04-12T21:09:37.155Z,99638
2018-04-12T21:12:48.423Z,99639
2018-04-12T21:15:57.831Z,99635
2018-04-12T21:19:07.256Z,99635
2018-04-12T21:22:17.172Z,99627
2018-04-12T21:25:26.635Z,99627
2018-04-12T21:28:36.232Z,99631
2018-04-12T21:31:52.581Z,99631
2018-04-12T21:35:03.842Z,99627
2018-04-12T21:38:17.127Z,99626
2018-04-12T21:41:26.560Z,99626
2018-04-12T21:44:36.849Z,99636
2018-04-12T21:47:46.736Z,99640
2018-04-12T21:50:56.980Z,99636
2018-04-12T21:54:10.656Z,99648
2018-04-12T21:57:20.568Z,99648
2018-04-12T22:00:29.989Z,99655
2018-04-12T22:03:39.830Z,99652
2018-04-12T22:06:50.099Z,99645
2018-04-12T22:09:59.937Z,99655
2018-04-12T22:13:09.371Z,99651
2018-04-12T22:16:23.747Z,99657
2018-04-12T22:19:35.256Z,99657
2018-04-12T22:22:44.865Z,99651
2018-04-12T22:25:54.603Z,99650
2018-04-12T22:29:05.535Z,99655
2018-04-12T22:32:18.917Z,99656
2018-04-12T22:35:29.856Z,99667
2018-04-12T22:38:40.976Z,99659
2018-04-12T22:41:51.207Z,99661
2018-04-12T22:45:01.185Z,99662
2018-04-12T22:48:11.701Z,99661
2018-04-12T22:51:21.895Z,99665
2018-04-12T22:54:32.203Z,99667
2018-04-12T22:57:42.451Z,99669
2018-04-12T23:00:51.876Z,99673
2018-04-12T23:04:04.849Z,99677
2018-04-12T23:07:19.351Z,99683
2018-04-12T23:10:29.232Z,99681
2018-04-12T23:13:39.731Z,99693
2018-04-12T23:16:52.397Z,99695
2018-04-12T23:20:01.824Z,99696
2018-04-12T23:23:12.151Z,99699
2018-04-12T23:26:21.524Z,99710
2018-04-12T23:29:31.766Z,99718
2018-04-12T23:32:41.667Z,99722
2018-04-12T23:35:51.508Z,99730
2018-04-12T23:39:02.412Z,99731
2018-04-12T23:42:12.624Z,99741
2018-04-12T23:45:23.055Z,99738
2018-04-12T23:48:32.939Z,99733
2018-04-12T23:51:42.479Z,99727
2018-04-12T23:54:53.115Z,99721
2018-04-12T23:58:02.904Z,99721
